IGO247E VANP-VOVZ
Flight info
| Callsign | IGO247E |
|---|---|
| Flight time | N/A |
| Altitude | 33000 |
| Route | DCT NNP DCT OMLEG N877 VVZ DCT |
| Aircraft | A20N/M-SDE2E3FGHIRWXY/LB1 |
Departure
| Time | 2026-05-06 08:00 |
|---|---|
| Airport | Dr. Babasaheb Ambedkar International Airport (VANP) |
Arrival
| Time | N/A |
|---|---|
| Airport | Visakhapatnam International Airport (VOVZ) |
| Time | Latitude | Longitude | Altitude | Speed | Heading |
|---|---|---|---|---|---|
| 2026-05-06 07:44 | 21.09064 | 79.05332 | 1017 ft | 0 kts | 123° |
| 2026-05-06 07:50 | 21.09066 | 79.05329 | 1017 ft | 2 kts | 123° |
| 2026-05-06 07:50 | 21.09074 | 79.05315 | 1018 ft | 2 kts | 123° |
| 2026-05-06 07:50 | 21.09084 | 79.05303 | 1018 ft | 2 kts | 153° |
| 2026-05-06 07:51 | 21.09099 | 79.05299 | 1018 ft | 2 kts | 188° |
| 2026-05-06 07:51 | 21.09108 | 79.05302 | 1018 ft | 0 kts | 211° |
| 2026-05-06 07:51 | 21.09114 | 79.05307 | 1018 ft | 0 kts | 214° |
| 2026-05-06 07:54 | 21.09099 | 79.05296 | 1018 ft | 5 kts | 214° |
| 2026-05-06 07:54 | 21.09056 | 79.05265 | 1019 ft | 9 kts | 213° |
| 2026-05-06 07:54 | 21.08986 | 79.05215 | 1020 ft | 14 kts | 214° |
| 2026-05-06 07:55 | 21.08894 | 79.05152 | 1022 ft | 15 kts | 200° |
| 2026-05-06 07:55 | 21.08801 | 79.05197 | 1021 ft | 14 kts | 168° |
| 2026-05-06 07:55 | 21.08749 | 79.05132 | 1023 ft | 13 kts | 291° |
| 2026-05-06 07:55 | 21.08815 | 79.05070 | 1024 ft | 12 kts | 323° |
| 2026-05-06 07:56 | 21.08882 | 79.05017 | 1025 ft | 12 kts | 323° |
| 2026-05-06 07:56 | 21.08952 | 79.04960 | 1026 ft | 14 kts | 322° |
| 2026-05-06 07:56 | 21.09046 | 79.04885 | 1027 ft | 19 kts | 324° |
| 2026-05-06 07:56 | 21.09170 | 79.04788 | 1029 ft | 24 kts | 323° |
| 2026-05-06 07:57 | 21.09315 | 79.04671 | 1029 ft | 28 kts | 323° |
| 2026-05-06 07:57 | 21.09484 | 79.04538 | 1032 ft | 31 kts | 323° |
| 2026-05-06 07:57 | 21.09671 | 79.04390 | 1034 ft | 34 kts | 324° |
| 2026-05-06 07:57 | 21.09869 | 79.04234 | 1037 ft | 36 kts | 323° |
| 2026-05-06 07:58 | 21.10078 | 79.04067 | 1041 ft | 38 kts | 323° |
| 2026-05-06 07:58 | 21.10300 | 79.03892 | 1044 ft | 40 kts | 324° |
| 2026-05-06 07:58 | 21.10531 | 79.03709 | 1048 ft | 42 kts | 323° |
| 2026-05-06 07:58 | 21.10758 | 79.03529 | 1049 ft | 30 kts | 323° |
| 2026-05-06 07:59 | 21.10844 | 79.03445 | 1050 ft | 6 kts | 300° |
| 2026-05-06 07:59 | 21.10849 | 79.03455 | 1049 ft | 4 kts | 128° |
| 2026-05-06 07:59 | 21.10810 | 79.03490 | 1049 ft | 16 kts | 144° |
| 2026-05-06 07:59 | 21.10520 | 79.03717 | 1048 ft | 85 kts | 143° |
| 2026-05-06 08:00 | 21.09871 | 79.04231 | 1037 ft | 144 kts | 143° |
| 2026-05-06 08:00 | 21.08946 | 79.04952 | 1249 ft | 173 kts | 144° |
| 2026-05-06 08:00 | 21.08002 | 79.05695 | 1835 ft | 173 kts | 144° |
| 2026-05-06 08:00 | 21.06981 | 79.06486 | 2249 ft | 190 kts | 144° |
| 2026-05-06 08:01 | 21.05888 | 79.07401 | 2687 ft | 208 kts | 139° |
| 2026-05-06 08:01 | 21.04855 | 79.08569 | 2944 ft | 226 kts | 129° |
| 2026-05-06 08:01 | 21.03921 | 79.09980 | 3246 ft | 242 kts | 126° |
| 2026-05-06 08:01 | 21.02882 | 79.11468 | 3550 ft | 258 kts | 129° |
| 2026-05-06 08:02 | 21.01717 | 79.13009 | 3925 ft | 271 kts | 130° |
| 2026-05-06 08:02 | 21.00511 | 79.14569 | 4525 ft | 275 kts | 131° |
| 2026-05-06 08:02 | 20.99276 | 79.16155 | 5167 ft | 278 kts | 129° |
| 2026-05-06 08:02 | 20.98034 | 79.17731 | 5854 ft | 279 kts | 129° |
| 2026-05-06 08:03 | 20.96800 | 79.19316 | 6512 ft | 282 kts | 129° |
| 2026-05-06 08:03 | 20.95527 | 79.20953 | 7164 ft | 285 kts | 129° |
| 2026-05-06 08:03 | 20.94270 | 79.22563 | 7803 ft | 289 kts | 129° |
| 2026-05-06 08:03 | 20.92969 | 79.24226 | 8455 ft | 292 kts | 129° |
| 2026-05-06 08:04 | 20.91668 | 79.25887 | 9099 ft | 295 kts | 129° |
| 2026-05-06 08:04 | 20.90342 | 79.27578 | 9747 ft | 299 kts | 129° |
| 2026-05-06 08:04 | 20.89003 | 79.29285 | 10313 ft | 305 kts | 129° |
| 2026-05-06 08:04 | 20.87594 | 79.31072 | 10605 ft | 321 kts | 129° |
| 2026-05-06 08:05 | 20.86120 | 79.32945 | 10972 ft | 333 kts | 129° |
| 2026-05-06 08:05 | 20.84623 | 79.34850 | 11563 ft | 337 kts | 129° |
| 2026-05-06 08:05 | 20.83120 | 79.36765 | 12190 ft | 340 kts | 129° |
| 2026-05-06 08:05 | 20.81600 | 79.38705 | 12804 ft | 343 kts | 129° |
| 2026-05-06 08:06 | 20.80048 | 79.40685 | 13421 ft | 346 kts | 129° |
| 2026-05-06 08:06 | 20.78519 | 79.42635 | 14018 ft | 349 kts | 129° |
| 2026-05-06 08:06 | 20.76945 | 79.44644 | 14622 ft | 352 kts | 129° |
| 2026-05-06 08:06 | 20.75371 | 79.46654 | 15214 ft | 355 kts | 129° |
| 2026-05-06 08:07 | 20.73787 | 79.48674 | 15798 ft | 358 kts | 129° |
| 2026-05-06 08:07 | 20.72184 | 79.50719 | 16376 ft | 361 kts | 129° |
| 2026-05-06 08:07 | 20.70563 | 79.52787 | 16948 ft | 364 kts | 129° |
| 2026-05-06 08:07 | 20.68938 | 79.54858 | 17509 ft | 367 kts | 129° |
| 2026-05-06 08:08 | 20.67300 | 79.56945 | 18063 ft | 370 kts | 129° |
| 2026-05-06 08:08 | 20.65629 | 79.59074 | 18615 ft | 373 kts | 129° |
| 2026-05-06 08:08 | 20.63984 | 79.61168 | 19150 ft | 376 kts | 129° |
| 2026-05-06 08:08 | 20.62288 | 79.63326 | 19689 ft | 379 kts | 130° |
| 2026-05-06 08:09 | 20.60588 | 79.65490 | 20226 ft | 382 kts | 130° |
| 2026-05-06 08:09 | 20.58892 | 79.67658 | 20758 ft | 384 kts | 130° |
| 2026-05-06 08:09 | 20.57163 | 79.69870 | 21294 ft | 387 kts | 130° |
| 2026-05-06 08:09 | 20.55444 | 79.72065 | 21820 ft | 390 kts | 130° |
| 2026-05-06 08:10 | 20.53694 | 79.74295 | 22349 ft | 393 kts | 130° |
| 2026-05-06 08:10 | 20.51935 | 79.76533 | 22872 ft | 396 kts | 130° |
| 2026-05-06 08:10 | 20.50174 | 79.78770 | 23389 ft | 399 kts | 130° |
| 2026-05-06 08:10 | 20.48369 | 79.81062 | 23908 ft | 402 kts | 130° |
| 2026-05-06 08:11 | 20.46576 | 79.83337 | 24413 ft | 404 kts | 130° |
| 2026-05-06 08:11 | 20.44772 | 79.85626 | 24913 ft | 407 kts | 130° |
| 2026-05-06 08:11 | 20.42944 | 79.87942 | 25408 ft | 410 kts | 130° |
| 2026-05-06 08:11 | 20.41112 | 79.90263 | 25888 ft | 413 kts | 130° |
| 2026-05-06 08:12 | 20.39247 | 79.92625 | 26362 ft | 415 kts | 130° |
| 2026-05-06 08:12 | 20.37402 | 79.94960 | 26814 ft | 418 kts | 130° |
| 2026-05-06 08:12 | 20.35514 | 79.97349 | 27261 ft | 421 kts | 130° |
| 2026-05-06 08:12 | 20.33648 | 79.99709 | 27682 ft | 423 kts | 130° |
| 2026-05-06 08:13 | 20.31738 | 80.02124 | 28091 ft | 425 kts | 130° |
| 2026-05-06 08:13 | 20.29838 | 80.04526 | 28480 ft | 428 kts | 130° |
| 2026-05-06 08:13 | 20.27922 | 80.06946 | 28854 ft | 430 kts | 130° |
| 2026-05-06 08:13 | 20.25976 | 80.09403 | 29217 ft | 432 kts | 130° |
| 2026-05-06 08:14 | 20.24044 | 80.11842 | 29563 ft | 434 kts | 130° |
| 2026-05-06 08:14 | 20.22090 | 80.14307 | 29937 ft | 435 kts | 130° |
| 2026-05-06 08:14 | 20.20158 | 80.16743 | 30386 ft | 433 kts | 130° |
| 2026-05-06 08:14 | 20.18225 | 80.19181 | 30834 ft | 431 kts | 130° |
| 2026-05-06 08:15 | 20.16289 | 80.21620 | 31230 ft | 430 kts | 130° |
| 2026-05-06 08:15 | 20.14377 | 80.24030 | 31537 ft | 431 kts | 130° |
| 2026-05-06 08:15 | 20.12415 | 80.26499 | 31825 ft | 433 kts | 130° |
| 2026-05-06 08:15 | 20.10491 | 80.28920 | 32110 ft | 434 kts | 130° |
| 2026-05-06 08:16 | 20.08537 | 80.31378 | 32400 ft | 435 kts | 130° |
| 2026-05-06 08:16 | 20.06574 | 80.33847 | 32683 ft | 436 kts | 130° |
| 2026-05-06 08:16 | 20.04626 | 80.36295 | 32819 ft | 438 kts | 130° |
| 2026-05-06 08:16 | 20.02660 | 80.38765 | 32823 ft | 438 kts | 130° |
| 2026-05-06 08:17 | 19.98722 | 80.43710 | 32830 ft | 438 kts | 130° |
| 2026-05-06 08:17 | 19.94792 | 80.48640 | 32831 ft | 437 kts | 130° |
| 2026-05-06 08:18 | 19.90877 | 80.53548 | 32832 ft | 437 kts | 130° |
| 2026-05-06 08:18 | 19.86940 | 80.58459 | 32831 ft | 437 kts | 131° |
| 2026-05-06 08:19 | 19.82987 | 80.63377 | 32831 ft | 437 kts | 130° |
| 2026-05-06 08:19 | 19.79055 | 80.68301 | 32831 ft | 436 kts | 131° |
| 2026-05-06 08:20 | 19.75166 | 80.73183 | 32831 ft | 436 kts | 131° |
| 2026-05-06 08:20 | 19.71233 | 80.78101 | 32831 ft | 436 kts | 131° |
| 2026-05-06 08:21 | 19.67331 | 80.82973 | 32831 ft | 436 kts | 131° |
| 2026-05-06 08:21 | 19.63403 | 80.87872 | 32831 ft | 436 kts | 131° |
| 2026-05-06 08:22 | 19.59457 | 80.92788 | 32831 ft | 435 kts | 131° |
| 2026-05-06 08:22 | 19.55537 | 80.97628 | 32831 ft | 435 kts | 131° |
| 2026-05-06 08:23 | 19.51562 | 81.02478 | 32831 ft | 433 kts | 131° |
| 2026-05-06 08:23 | 19.47627 | 81.07282 | 32831 ft | 433 kts | 131° |
| 2026-05-06 08:24 | 19.43680 | 81.12102 | 32832 ft | 433 kts | 130° |
| 2026-05-06 08:24 | 19.39721 | 81.16937 | 32832 ft | 433 kts | 130° |
| 2026-05-06 08:25 | 19.35790 | 81.21735 | 32831 ft | 433 kts | 130° |
| 2026-05-06 08:25 | 19.31828 | 81.26565 | 32831 ft | 433 kts | 130° |
| 2026-05-06 08:26 | 19.27887 | 81.31366 | 32831 ft | 433 kts | 130° |
| 2026-05-06 08:26 | 19.23925 | 81.36189 | 32832 ft | 433 kts | 130° |
| 2026-05-06 08:27 | 19.19988 | 81.40977 | 32832 ft | 433 kts | 130° |
| 2026-05-06 08:27 | 19.16036 | 81.45779 | 32830 ft | 432 kts | 130° |
| 2026-05-06 08:28 | 19.12104 | 81.50554 | 32826 ft | 432 kts | 130° |
| 2026-05-06 08:28 | 19.08134 | 81.55371 | 32820 ft | 432 kts | 130° |
| 2026-05-06 08:29 | 19.04191 | 81.60152 | 32813 ft | 432 kts | 130° |
| 2026-05-06 08:29 | 19.00238 | 81.64940 | 32807 ft | 432 kts | 130° |
| 2026-05-06 08:30 | 18.96318 | 81.69707 | 32456 ft | 431 kts | 130° |
| 2026-05-06 08:30 | 18.94351 | 81.72098 | 32204 ft | 429 kts | 130° |
| 2026-05-06 08:30 | 18.92384 | 81.74482 | 31951 ft | 426 kts | 130° |
| 2026-05-06 08:31 | 18.90459 | 81.76813 | 31701 ft | 424 kts | 130° |
| 2026-05-06 08:31 | 18.88519 | 81.79152 | 31451 ft | 423 kts | 131° |
| 2026-05-06 08:31 | 18.86571 | 81.81489 | 31200 ft | 423 kts | 130° |
| 2026-05-06 08:31 | 18.84626 | 81.83825 | 30950 ft | 423 kts | 130° |
| 2026-05-06 08:32 | 18.82686 | 81.86159 | 30700 ft | 424 kts | 130° |
| 2026-05-06 08:32 | 18.80752 | 81.88490 | 30451 ft | 424 kts | 130° |
| 2026-05-06 08:32 | 18.78825 | 81.90816 | 30203 ft | 425 kts | 130° |
| 2026-05-06 08:32 | 18.76863 | 81.93185 | 29951 ft | 425 kts | 130° |
| 2026-05-06 08:33 | 18.74937 | 81.95508 | 29671 ft | 426 kts | 130° |
| 2026-05-06 08:33 | 18.72962 | 81.97887 | 29317 ft | 427 kts | 130° |
| 2026-05-06 08:33 | 18.71027 | 82.00217 | 28920 ft | 427 kts | 130° |
| 2026-05-06 08:33 | 18.69068 | 82.02582 | 28462 ft | 425 kts | 130° |
| 2026-05-06 08:34 | 18.67148 | 82.04903 | 28123 ft | 422 kts | 130° |
| 2026-05-06 08:34 | 18.63320 | 82.09534 | 27321 ft | 416 kts | 130° |
| 2026-05-06 08:34 | 18.61415 | 82.11839 | 26903 ft | 413 kts | 130° |
| 2026-05-06 08:35 | 18.59548 | 82.14098 | 26489 ft | 410 kts | 130° |
| 2026-05-06 08:35 | 18.57683 | 82.16354 | 26070 ft | 407 kts | 130° |
| 2026-05-06 08:35 | 18.55827 | 82.18597 | 25652 ft | 404 kts | 130° |
| 2026-05-06 08:35 | 18.54002 | 82.20805 | 25238 ft | 401 kts | 130° |
| 2026-05-06 08:36 | 18.52182 | 82.23003 | 24823 ft | 398 kts | 130° |
| 2026-05-06 08:36 | 18.50378 | 82.25183 | 24411 ft | 395 kts | 130° |
| 2026-05-06 08:36 | 18.48575 | 82.27359 | 23995 ft | 392 kts | 130° |
| 2026-05-06 08:36 | 18.46780 | 82.29527 | 23580 ft | 389 kts | 130° |
| 2026-05-06 08:37 | 18.45017 | 82.31654 | 23170 ft | 386 kts | 130° |
| 2026-05-06 08:37 | 18.43275 | 82.33755 | 22763 ft | 383 kts | 130° |
| 2026-05-06 08:37 | 18.41516 | 82.35877 | 22352 ft | 380 kts | 130° |
| 2026-05-06 08:37 | 18.39786 | 82.37962 | 21947 ft | 377 kts | 130° |
| 2026-05-06 08:38 | 18.38062 | 82.40040 | 21540 ft | 375 kts | 130° |
| 2026-05-06 08:38 | 18.36377 | 82.42071 | 21141 ft | 372 kts | 129° |
| 2026-05-06 08:38 | 18.34681 | 82.44112 | 20739 ft | 369 kts | 129° |
| 2026-05-06 08:38 | 18.32991 | 82.46147 | 20336 ft | 367 kts | 129° |
| 2026-05-06 08:39 | 18.31328 | 82.48148 | 19938 ft | 364 kts | 129° |
| 2026-05-06 08:39 | 18.29673 | 82.50140 | 19541 ft | 362 kts | 129° |
| 2026-05-06 08:39 | 18.28009 | 82.52142 | 19139 ft | 359 kts | 129° |
| 2026-05-06 08:39 | 18.26377 | 82.54104 | 18745 ft | 356 kts | 129° |
| 2026-05-06 08:40 | 18.24754 | 82.56055 | 18352 ft | 354 kts | 129° |
| 2026-05-06 08:40 | 18.23145 | 82.57988 | 17962 ft | 351 kts | 129° |
| 2026-05-06 08:40 | 18.21531 | 82.59927 | 17569 ft | 349 kts | 129° |
| 2026-05-06 08:40 | 18.19951 | 82.61825 | 17185 ft | 347 kts | 129° |
| 2026-05-06 08:41 | 18.18363 | 82.63731 | 16797 ft | 344 kts | 129° |
| 2026-05-06 08:41 | 18.16796 | 82.65614 | 16413 ft | 342 kts | 130° |
| 2026-05-06 08:41 | 18.15236 | 82.67497 | 16028 ft | 340 kts | 129° |
| 2026-05-06 08:41 | 18.13706 | 82.69344 | 15651 ft | 337 kts | 129° |
| 2026-05-06 08:42 | 18.12160 | 82.71207 | 15269 ft | 335 kts | 130° |
| 2026-05-06 08:42 | 18.10632 | 82.73045 | 14890 ft | 333 kts | 130° |
| 2026-05-06 08:42 | 18.09109 | 82.74873 | 14512 ft | 331 kts | 130° |
| 2026-05-06 08:42 | 18.07603 | 82.76680 | 14137 ft | 328 kts | 130° |
| 2026-05-06 08:43 | 18.06098 | 82.78483 | 13763 ft | 326 kts | 130° |
| 2026-05-06 08:43 | 18.04616 | 82.80259 | 13392 ft | 324 kts | 130° |
| 2026-05-06 08:43 | 18.03131 | 82.82037 | 13022 ft | 322 kts | 130° |
| 2026-05-06 08:43 | 18.01656 | 82.83804 | 12653 ft | 320 kts | 130° |
| 2026-05-06 08:44 | 18.00209 | 82.85535 | 12292 ft | 318 kts | 130° |
| 2026-05-06 08:44 | 17.98743 | 82.87289 | 11924 ft | 316 kts | 130° |
| 2026-05-06 08:44 | 17.97318 | 82.88994 | 11565 ft | 314 kts | 130° |
| 2026-05-06 08:44 | 17.95868 | 82.90727 | 11200 ft | 311 kts | 130° |
| 2026-05-06 08:45 | 17.94447 | 82.92427 | 10840 ft | 309 kts | 130° |
| 2026-05-06 08:45 | 17.93041 | 82.94107 | 10482 ft | 307 kts | 130° |
| 2026-05-06 08:45 | 17.91627 | 82.95795 | 10165 ft | 303 kts | 131° |
| 2026-05-06 08:45 | 17.90264 | 82.97424 | 9943 ft | 294 kts | 131° |
| 2026-05-06 08:46 | 17.88945 | 82.98991 | 9871 ft | 281 kts | 131° |
| 2026-05-06 08:46 | 17.87659 | 83.00510 | 9795 ft | 272 kts | 131° |
| 2026-05-06 08:46 | 17.86405 | 83.01994 | 9459 ft | 272 kts | 131° |
| 2026-05-06 08:46 | 17.85166 | 83.03465 | 9154 ft | 270 kts | 131° |
| 2026-05-06 08:47 | 17.83938 | 83.04927 | 8859 ft | 267 kts | 131° |
| 2026-05-06 08:47 | 17.82715 | 83.06383 | 8566 ft | 265 kts | 131° |
| 2026-05-06 08:47 | 17.81497 | 83.07835 | 8274 ft | 263 kts | 131° |
| 2026-05-06 08:47 | 17.80302 | 83.09258 | 7988 ft | 260 kts | 131° |
| 2026-05-06 08:48 | 17.79101 | 83.10689 | 7698 ft | 258 kts | 131° |
| 2026-05-06 08:48 | 17.77922 | 83.12094 | 7413 ft | 256 kts | 131° |
| 2026-05-06 08:48 | 17.76753 | 83.13489 | 7130 ft | 255 kts | 131° |
| 2026-05-06 08:48 | 17.75588 | 83.14877 | 6847 ft | 253 kts | 131° |
| 2026-05-06 08:49 | 17.74420 | 83.16269 | 6562 ft | 251 kts | 132° |
| 2026-05-06 08:49 | 17.73270 | 83.17639 | 6280 ft | 249 kts | 132° |
| 2026-05-06 08:49 | 17.72138 | 83.18987 | 6001 ft | 248 kts | 132° |
| 2026-05-06 08:49 | 17.71005 | 83.20335 | 5721 ft | 247 kts | 132° |
| 2026-05-06 08:50 | 17.69869 | 83.21687 | 5439 ft | 246 kts | 132° |
| 2026-05-06 08:50 | 17.68741 | 83.23029 | 5158 ft | 244 kts | 132° |
| 2026-05-06 08:50 | 17.67686 | 83.24438 | 4843 ft | 246 kts | 118° |
| 2026-05-06 08:50 | 17.67235 | 83.26150 | 4538 ft | 249 kts | 93° |
| 2026-05-06 08:51 | 17.67486 | 83.27951 | 4258 ft | 251 kts | 78° |
| 2026-05-06 08:51 | 17.67940 | 83.29725 | 3974 ft | 250 kts | 77° |
| 2026-05-06 08:51 | 17.68407 | 83.31481 | 3692 ft | 250 kts | 77° |